Time;durP1;ratioP1;P1;durP2;ratioP2;P2;SDS_P1;SDS_P2;PMS_P1;PMS_P2;Temp;Humidity;BMP_temperature;BMP_pressure;BME280_temperature;BME280_humidity;BME280_pressure;Samples;Min_cycle;Max_cycle;Signal;HPM_P1;HPM_P2
2023/07/03 00:00:12;;;;;;;12.35;3.95;;;;;;;15.59;64.57;100964.22;4977781;28;20038;-63
2023/07/03 00:02:38;;;;;;;10.23;4.40;;;;;;;15.58;64.22;100967.69;4977159;28;20536;-63
2023/07/03 00:05:06;;;;;;;13.20;4.28;;;;;;;15.46;65.63;100963.25;4977619;28;20026;-63
2023/07/03 00:07:32;;;;;;;12.73;4.20;;;;;;;15.46;65.13;100969.38;4976810;28;20026;-63
2023/07/03 00:09:57;;;;;;;13.10;4.18;;;;;;;15.42;65.20;100957.09;4978019;28;20033;-63
2023/07/03 00:12:22;;;;;;;14.38;4.35;;;;;;;15.43;65.96;100955.38;4977527;28;20130;-63
2023/07/03 00:14:49;;;;;;;14.07;4.20;;;;;;;15.39;65.92;100954.47;4977761;28;20100;-63
2023/07/03 00:17:14;;;;;;;12.55;4.18;;;;;;;15.40;64.93;100953.59;4959285;28;20511;-63
2023/07/03 00:19:39;;;;;;;12.40;4.60;;;;;;;15.40;66.01;100948.34;4977672;28;20033;-63
2023/07/03 00:22:05;;;;;;;12.02;4.28;;;;;;;15.38;66.15;100952.72;4978384;28;20058;-62
2023/07/03 00:24:31;;;;;;;15.30;4.35;;;;;;;15.38;65.62;100952.72;4961552;28;20089;-62
2023/07/03 00:26:57;;;;;;;11.80;4.43;;;;;;;15.38;66.14;100951.84;4981336;28;20031;-62
2023/07/03 00:29:23;;;;;;;13.73;4.03;;;;;;;15.35;65.00;100950.09;4981254;28;20482;-62
2023/07/03 00:31:48;;;;;;;12.57;4.38;;;;;;;15.31;66.16;100943.06;4980488;28;20061;-63
2023/07/03 00:34:13;;;;;;;11.63;4.63;;;;;;;15.36;66.15;100951.81;4981005;28;20396;-62
2023/07/03 00:36:39;;;;;;;11.25;4.00;;;;;;;15.34;66.28;100947.44;4981353;28;20033;-62
2023/07/03 00:39:04;;;;;;;15.23;4.50;;;;;;;15.34;67.02;100952.69;4981247;28;20033;-62
2023/07/03 00:41:31;;;;;;;12.82;4.35;;;;;;;15.35;67.03;100950.09;4979898;28;20058;-63
2023/07/03 00:43:56;;;;;;;10.82;4.60;;;;;;;15.33;67.25;100961.44;4981458;28;20030;-63
2023/07/03 00:46:22;;;;;;;14.38;4.40;;;;;;;15.34;66.38;100950.94;4980096;28;20030;-64
2023/07/03 00:48:48;;;;;;;12.23;4.32;;;;;;;15.21;67.96;100942.13;4980539;28;20094;-62
2023/07/03 00:51:14;;;;;;;12.77;4.00;;;;;;;15.26;67.42;100948.25;4980905;28;20031;-63
2023/07/03 00:53:40;;;;;;;14.43;4.40;;;;;;;15.20;68.15;100942.13;4981952;28;20034;-63
2023/07/03 00:56:06;;;;;;;14.85;3.95;;;;;;;15.19;68.23;100945.59;4980511;28;20147;-62
2023/07/03 00:58:32;;;;;;;11.82;3.70;;;;;;;15.21;66.99;100946.50;4981134;28;20109;-63
2023/07/03 01:01:17;;;;;;;12.13;3.92;;;;;;;15.19;68.03;100941.22;4980982;28;20456;-62
2023/07/03 01:03:56;;;;;;;14.30;4.50;;;;;;;15.11;68.65;100935.06;4981225;28;20037;-62
2023/07/03 01:06:28;;;;;;;12.60;3.92;;;;;;;15.16;68.02;100940.34;4980985;28;20122;-63
2023/07/03 01:08:58;;;;;;;12.68;4.70;;;;;;;15.09;68.84;100935.06;4981337;28;20502;-63
2023/07/03 01:11:24;;;;;;;12.27;4.13;;;;;;;15.07;69.13;100928.91;4964223;28;20034;-63
2023/07/03 01:13:54;;;;;;;17.15;4.43;;;;;;;15.07;69.14;100939.41;4980403;28;20164;-63
2023/07/03 01:16:20;;;;;;;14.15;4.10;;;;;;;15.06;69.13;100937.66;4981206;28;20034;-62
2023/07/03 01:18:48;;;;;;;11.95;3.78;;;;;;;15.11;68.69;100938.56;4981198;28;20031;-62
2023/07/03 01:21:29;;;;;;;13.38;4.38;;;;;;;15.05;69.83;100945.53;4979596;28;20117;-62
2023/07/03 01:24:04;;;;;;;14.55;3.97;;;;;;;15.06;69.46;100940.28;4980419;28;20038;-62
2023/07/03 01:26:31;;;;;;;17.60;4.50;;;;;;;14.99;69.75;100941.13;4979806;28;20494;-62
2023/07/03 01:28:59;;;;;;;15.05;4.28;;;;;;;15.00;69.63;100937.59;4979822;28;20027;-63
2023/07/03 01:31:28;;;;;;;12.63;4.10;;;;;;;14.99;70.27;100935.88;4979383;28;20089;-62
2023/07/03 01:33:56;;;;;;;15.25;3.83;;;;;;;14.99;70.00;100935.88;4979735;28;20034;-63
2023/07/03 01:36:22;;;;;;;18.52;4.32;;;;;;;14.97;70.74;100932.34;4978969;28;20062;-62
2023/07/03 01:38:49;;;;;;;14.13;4.18;;;;;;;14.90;71.02;100941.94;4979935;28;20045;-63
2023/07/03 01:41:16;;;;;;;14.50;4.00;;;;;;;14.88;71.20;100932.28;4979364;28;20158;-63
2023/07/03 01:43:44;;;;;;;15.32;4.22;;;;;;;14.91;71.61;100945.41;4979485;28;20524;-63
2023/07/03 01:46:10;;;;;;;15.93;4.88;;;;;;;14.85;71.75;100942.75;4979288;28;20101;-63
2023/07/03 01:48:36;;;;;;;14.13;4.47;;;;;;;14.89;71.69;100931.44;4979342;28;20047;-63
2023/07/03 01:51:03;;;;;;;13.20;4.20;;;;;;;14.87;71.69;100935.75;4979355;28;20061;-63
2023/07/03 01:53:32;;;;;;;14.98;4.32;;;;;;;14.84;72.20;100931.38;4979542;28;20038;-62
2023/07/03 01:56:10;;;;;;;17.77;4.60;;;;;;;14.84;71.97;100930.50;4978494;28;20037;-62
2023/07/03 01:58:51;;;;;;;18.05;4.10;;;;;;;14.86;72.07;100931.38;4979188;28;20052;-62
2023/07/03 02:01:27;;;;;;;12.63;4.10;;;;;;;14.85;71.73;100927.03;4979033;28;20045;-63
2023/07/03 02:03:58;;;;;;;18.42;4.43;;;;;;;14.86;71.84;100931.38;4979481;28;20037;-62
2023/07/03 02:06:28;;;;;;;15.30;4.43;;;;;;;14.86;72.77;100929.66;4963089;28;20029;-63
2023/07/03 02:08:55;;;;;;;18.17;4.45;;;;;;;14.84;72.54;100917.38;4979710;28;20033;-63
2023/07/03 02:11:22;;;;;;;13.15;4.03;;;;;;;14.80;72.79;100921.72;4979299;28;20066;-62
2023/07/03 02:13:48;;;;;;;17.80;4.72;;;;;;;14.71;73.96;100922.53;4979498;28;20045;-62
2023/07/03 02:16:15;;;;;;;12.90;4.40;;;;;;;14.68;73.48;100924.25;4960672;28;20022;-62
2023/07/03 02:18:44;;;;;;;13.45;4.28;;;;;;;14.71;73.66;100924.28;4979986;28;20057;-63
2023/07/03 02:21:09;;;;;;;16.00;4.10;;;;;;;14.63;74.70;100918.09;4980154;28;20039;-62
2023/07/03 02:23:35;;;;;;;14.32;4.50;;;;;;;14.60;74.70;100926.78;4979303;28;20508;-62
2023/07/03 02:26:00;;;;;;;14.60;4.13;;;;;;;14.58;75.43;100918.91;4978633;28;20117;-62
2023/07/03 02:28:25;;;;;;;16.25;4.85;;;;;;;14.56;75.08;100915.38;4979132;28;20034;-62
2023/07/03 02:30:51;;;;;;;21.02;5.38;;;;;;;14.51;75.85;100918.84;4979047;28;20022;-62
2023/07/03 02:33:16;;;;;;;13.38;4.43;;;;;;;14.49;75.71;100920.56;4978972;28;20077;-62
2023/07/03 02:35:42;;;;;;;16.67;5.05;;;;;;;14.46;76.14;100915.31;4979693;28;20125;-62
2023/07/03 02:38:08;;;;;;;15.63;4.93;;;;;;;14.41;75.32;100920.50;4977612;28;20030;-63
2023/07/03 02:40:36;;;;;;;16.42;5.00;;;;;;;14.40;75.21;100909.13;4977797;28;20510;-62
2023/07/03 02:43:01;;;;;;;14.85;4.93;;;;;;;14.49;76.35;100907.47;4979056;28;20023;-63
2023/07/03 02:45:26;;;;;;;15.88;5.18;;;;;;;14.36;76.83;100909.97;4979461;28;20109;-62
2023/07/03 02:47:52;;;;;;;18.23;4.40;;;;;;;14.40;77.23;100908.28;4989541;28;20646;-62
2023/07/03 02:50:17;;;;;;;20.02;5.15;;;;;;;14.30;78.32;100904.69;4996264;28;20061;-62
2023/07/03 02:52:42;;;;;;;17.05;4.97;;;;;;;14.28;78.30;100911.66;4997964;28;20018;-62
2023/07/03 02:55:08;;;;;;;18.77;5.45;;;;;;;14.22;78.99;100915.09;4997634;28;20500;-62
2023/07/03 02:57:33;;;;;;;18.10;4.97;;;;;;;14.22;77.90;100898.47;4998017;28;20077;-62
2023/07/03 02:59:59;;;;;;;15.82;4.57;;;;;;;14.20;78.99;100897.59;4996369;28;20021;-63
2023/07/03 03:02:26;;;;;;;17.00;5.00;;;;;;;14.14;78.63;100903.66;4997814;28;20079;-63
2023/07/03 03:04:51;;;;;;;17.67;5.10;;;;;;;14.10;80.06;100907.09;4997951;28;20072;-62
2023/07/03 03:07:17;;;;;;;18.05;5.20;;;;;;;14.06;80.51;100908.81;4997647;28;20108;-62
2023/07/03 03:09:42;;;;;;;18.27;5.20;;;;;;;14.03;80.83;100900.94;4997041;28;20026;-62
2023/07/03 03:12:08;;;;;;;19.92;5.10;;;;;;;14.01;80.82;100905.25;4998502;28;20113;-62
2023/07/03 03:14:33;;;;;;;19.75;5.28;;;;;;;14.00;78.75;100902.63;4997527;28;20405;-62
2023/07/03 03:16:59;;;;;;;15.98;5.30;;;;;;;13.98;81.54;100900.00;4998491;28;20022;-62
2023/07/03 03:19:24;;;;;;;23.80;5.13;;;;;;;13.99;79.91;100896.53;4996902;28;20121;-63
2023/07/03 03:21:50;;;;;;;19.30;5.47;;;;;;;14.03;81.85;100900.03;4997280;28;20022;-62
2023/07/03 03:24:16;;;;;;;17.98;5.15;;;;;;;13.97;81.52;100902.59;4997217;28;20485;-62
2023/07/03 03:26:41;;;;;;;17.77;4.35;;;;;;;13.96;80.74;100896.50;4996699;28;20042;-62
2023/07/03 03:29:07;;;;;;;20.33;5.60;;;;;;;13.93;82.76;100896.44;4997288;28;20030;-62
2023/07/03 03:31:32;;;;;;;17.83;5.15;;;;;;;13.97;81.04;100890.38;4997107;28;20030;-62
2023/07/03 03:33:57;;;;;;;17.50;5.07;;;;;;;13.97;83.30;100899.97;4997835;28;21470;-62
2023/07/03 03:36:23;;;;;;;23.58;5.38;;;;;;;13.96;83.34;100903.47;4998866;28;20034;-62
2023/07/03 03:38:48;;;;;;;17.00;4.88;;;;;;;13.90;82.71;100902.53;4996942;28;20040;-62
2023/07/03 03:41:13;;;;;;;19.50;5.75;;;;;;;13.93;83.63;100903.44;4997670;28;20546;-63
2023/07/03 03:43:39;;;;;;;21.92;5.13;;;;;;;13.82;82.54;100898.09;4998095;28;20481;-63
2023/07/03 03:46:04;;;;;;;23.23;5.70;;;;;;;13.82;83.97;100898.97;4997059;28;20038;-63
2023/07/03 03:48:30;;;;;;;19.85;5.65;;;;;;;13.84;84.67;100901.59;4997184;28;20050;-63
2023/07/03 03:50:57;;;;;;;19.88;5.07;;;;;;;13.84;84.74;100897.22;4997765;28;20453;-63
2023/07/03 03:53:23;;;;;;;18.45;5.30;;;;;;;13.82;84.50;100893.72;4998791;28;20026;-63
2023/07/03 03:55:52;;;;;;;17.45;5.05;;;;;;;13.83;85.72;100900.72;4997987;28;20410;-63
2023/07/03 03:58:19;;;;;;;16.67;5.32;;;;;;;13.80;85.83;100902.41;4998957;28;20142;-63
2023/07/03 04:00:45;;;;;;;21.55;5.95;;;;;;;13.82;85.17;100908.56;5001470;28;20120;-63
2023/07/03 04:03:10;;;;;;;16.98;5.25;;;;;;;13.79;84.10;100903.25;5002885;28;20108;-63
2023/07/03 04:05:36;;;;;;;21.45;5.50;;;;;;;13.82;86.14;100913.81;5003335;28;20025;-63
2023/07/03 04:08:01;;;;;;;20.13;5.97;;;;;;;13.78;86.50;100912.88;5002578;28;20494;-63
2023/07/03 04:10:27;;;;;;;18.80;6.28;;;;;;;13.79;86.63;100903.25;5001503;28;20029;-63
2023/07/03 04:12:52;;;;;;;18.10;5.80;;;;;;;13.73;86.63;100906.72;5001928;28;20053;-63
2023/07/03 04:15:18;;;;;;;20.17;5.38;;;;;;;13.73;87.36;100909.34;5001880;28;20079;-63
2023/07/03 04:17:43;;;;;;;18.95;5.47;;;;;;;13.70;87.42;100907.56;5002808;28;20451;-63
2023/07/03 04:20:16;;;;;;;22.50;5.63;;;;;;;13.75;87.75;100915.47;5001768;28;20569;-63
2023/07/03 04:22:42;;;;;;;22.20;6.07;;;;;;;13.77;86.85;100905.88;5002050;28;20408;-63
2023/07/03 04:25:08;;;;;;;17.90;5.28;;;;;;;13.84;86.19;100905.06;5001809;28;20026;-62
2023/07/03 04:27:34;;;;;;;18.60;5.88;;;;;;;13.89;87.55;100907.78;5002043;28;20105;-63
2023/07/03 04:30:00;;;;;;;21.83;6.20;;;;;;;13.90;87.60;100899.94;5001456;28;20014;-63
2023/07/03 04:32:25;;;;;;;19.45;5.47;;;;;;;13.90;88.87;100897.31;5001001;28;20038;-62
2023/07/03 04:34:50;;;;;;;20.27;5.55;;;;;;;13.97;87.35;100903.47;5002925;28;20022;-63
2023/07/03 04:37:17;;;;;;;22.08;5.35;;;;;;;13.93;88.16;100906.91;5001033;28;20409;-63
2023/07/03 04:39:43;;;;;;;20.90;5.55;;;;;;;13.91;87.95;100909.53;5000325;28;20036;-63
2023/07/03 04:42:13;;;;;;;15.93;5.68;;;;;;;13.91;87.79;100916.50;5002149;28;21143;-62
2023/07/03 04:44:38;;;;;;;25.45;6.10;;;;;;;13.91;88.55;100913.91;5002464;28;20030;-62
2023/07/03 04:47:05;;;;;;;21.88;6.03;;;;;;;13.91;89.68;100912.13;5000858;28;20869;-63
2023/07/03 04:49:31;;;;;;;17.25;5.35;;;;;;;13.93;88.66;100914.78;5000954;28;20046;-63
2023/07/03 04:51:58;;;;;;;22.48;6.18;;;;;;;13.97;89.70;100918.31;5001422;28;20057;-62
2023/07/03 04:54:24;;;;;;;22.10;6.18;;;;;;;13.99;87.71;100921.81;5000429;28;20350;-63
2023/07/03 04:56:49;;;;;;;20.75;5.47;;;;;;;14.03;88.16;100921.00;4999842;28;20024;-63
2023/07/03 04:59:15;;;;;;;21.48;6.25;;;;;;;14.01;89.15;100927.97;5001586;28;20688;-63
2023/07/03 05:01:43;;;;;;;25.30;5.88;;;;;;;14.01;88.82;100928.84;5001138;28;20053;-62
2023/07/03 05:04:09;;;;;;;17.47;5.33;;;;;;;14.05;88.83;100930.63;5000686;28;20033;-63
2023/07/03 05:06:35;;;;;;;23.90;5.80;;;;;;;14.04;89.33;100931.50;5000848;28;20030;-62
2023/07/03 05:09:00;;;;;;;18.77;6.28;;;;;;;14.08;88.99;100938.53;4999648;28;20424;-62
2023/07/03 05:11:26;;;;;;;18.65;5.18;;;;;;;14.12;88.36;100935.94;4982341;28;20030;-63
2023/07/03 05:13:52;;;;;;;17.55;5.45;;;;;;;14.15;88.84;100941.22;5002161;28;20169;-63
2023/07/03 05:16:17;;;;;;;16.95;5.40;;;;;;;14.18;88.88;100938.63;5001168;28;20390;-63
2023/07/03 05:18:42;;;;;;;20.20;5.20;;;;;;;14.27;88.76;100943.97;4999938;28;20031;-63
2023/07/03 05:21:08;;;;;;;16.80;5.35;;;;;;;14.25;89.03;100946.56;5001576;28;20528;-63
2023/07/03 05:23:33;;;;;;;19.10;6.13;;;;;;;14.27;88.89;100943.97;5001798;28;20030;-62
2023/07/03 05:25:58;;;;;;;18.30;5.65;;;;;;;14.33;89.58;100944.03;4999782;28;20029;-62
2023/07/03 05:28:24;;;;;;;20.70;5.97;;;;;;;14.48;89.01;100958.13;5001297;28;20034;-62
2023/07/03 05:30:57;;;;;;;22.90;5.93;;;;;;;14.54;88.64;100955.56;5000716;28;20030;-62
2023/07/03 05:33:23;;;;;;;18.20;5.85;;;;;;;14.69;88.15;100958.38;5001376;28;20026;-63
2023/07/03 05:35:49;;;;;;;17.35;4.95;;;;;;;14.81;89.03;100962.81;5000081;28;20497;-63
2023/07/03 05:38:14;;;;;;;18.45;5.95;;;;;;;14.91;87.26;100953.28;4999657;28;21042;-57
2023/07/03 05:40:39;;;;;;;22.52;6.15;;;;;;;14.94;87.31;100954.19;5000967;28;20038;-57
2023/07/03 05:43:05;;;;;;;15.05;5.38;;;;;;;14.98;86.08;100959.47;4999847;28;20033;-58
2023/07/03 05:45:30;;;;;;;15.43;5.63;;;;;;;14.99;85.20;100958.59;5000570;28;20041;-57
2023/07/03 05:47:55;;;;;;;17.90;5.57;;;;;;;14.98;85.33;100960.34;4999748;28;20543;-57
2023/07/03 05:50:21;;;;;;;21.88;5.75;;;;;;;15.00;84.94;100953.34;4999724;28;20493;-57
2023/07/03 05:52:46;;;;;;;18.27;4.80;;;;;;;15.00;85.03;100961.22;5000437;28;20554;-57
2023/07/03 05:55:11;;;;;;;22.05;5.95;;;;;;;14.99;85.46;100962.09;5000095;28;20488;-58
2023/07/03 05:57:37;;;;;;;20.65;6.07;;;;;;;15.00;84.93;100961.22;5000422;28;20495;-57
2023/07/03 06:00:10;;;;;;;23.02;6.63;;;;;;;14.99;84.93;100959.47;5000498;28;20026;-57
2023/07/03 06:02:35;;;;;;;17.80;5.60;;;;;;;15.04;85.03;100959.50;5001014;28;20049;-57
2023/07/03 06:05:01;;;;;;;20.00;5.22;;;;;;;15.11;84.27;100958.69;5000022;28;20026;-57
2023/07/03 06:07:26;;;;;;;19.05;6.00;;;;;;;15.08;84.19;100963.91;5000256;28;20037;-57
2023/07/03 06:09:51;;;;;;;20.10;5.95;;;;;;;15.05;84.46;100959.53;4999933;28;20053;-57
2023/07/03 06:12:17;;;;;;;17.88;6.20;;;;;;;15.09;84.16;100963.03;5000593;28;20033;-57
2023/07/03 06:14:42;;;;;;;17.20;4.95;;;;;;;15.15;84.78;100957.84;5000057;28;20038;-57
2023/07/03 06:17:07;;;;;;;18.15;5.97;;;;;;;15.10;85.21;100968.28;5000430;28;20030;-58
2023/07/03 06:19:33;;;;;;;18.27;5.50;;;;;;;15.11;85.11;100964.81;4999956;28;20117;-57
2023/07/03 06:21:58;;;;;;;19.58;5.57;;;;;;;15.10;84.60;100960.41;4999546;28;20069;-57
2023/07/03 06:24:24;;;;;;;15.85;5.63;;;;;;;15.15;86.08;100967.44;4999846;28;20108;-58
2023/07/03 06:26:50;;;;;;;19.85;5.05;;;;;;;15.22;84.34;100966.63;4999519;28;20030;-57
2023/07/03 06:29:15;;;;;;;19.63;5.13;;;;;;;15.28;83.73;100964.91;4999567;28;20080;-57
2023/07/03 06:31:41;;;;;;;18.15;5.82;;;;;;;15.26;84.59;100968.41;4999420;28;20132;-57
2023/07/03 06:34:07;;;;;;;22.73;6.20;;;;;;;15.29;84.11;100963.16;4982159;28;20027;-57
2023/07/03 06:36:34;;;;;;;20.67;5.68;;;;;;;15.34;83.76;100960.56;4999112;28;20070;-58
2023/07/03 06:39:04;;;;;;;17.48;6.18;;;;;;;15.41;83.67;100964.97;4999118;28;20087;-57
2023/07/03 06:41:31;;;;;;;19.08;5.93;;;;;;;15.48;83.37;100967.66;4999652;28;20044;-57
2023/07/03 06:43:57;;;;;;;15.63;5.10;;;;;;;15.52;82.50;100962.41;4981757;28;20117;-57
2023/07/03 06:46:24;;;;;;;17.75;4.72;;;;;;;15.53;82.56;100964.19;4998522;28;20112;-58
2023/07/03 06:48:50;;;;;;;15.95;5.03;;;;;;;15.58;82.36;100962.44;4998817;28;20054;-58
2023/07/03 06:51:15;;;;;;;17.30;5.03;;;;;;;15.65;81.74;100964.22;4998297;28;20032;-58
2023/07/03 06:53:41;;;;;;;14.07;4.60;;;;;;;15.74;79.62;100955.50;4997617;28;20081;-57
2023/07/03 06:56:07;;;;;;;15.02;5.55;;;;;;;15.66;80.94;100950.22;4998317;28;20029;-58
2023/07/03 06:58:34;;;;;;;14.00;5.00;;;;;;;15.68;81.63;100951.09;4978984;28;20041;-57
2023/07/03 07:01:10;;;;;;;16.88;5.47;;;;;;;15.75;80.75;100954.66;4998607;28;20068;-58
2023/07/03 07:03:36;;;;;;;16.88;4.90;;;;;;;15.81;81.11;100960.84;4998478;28;20030;-57
2023/07/03 07:06:27;;;;;;;14.43;4.80;;;;;;;15.97;80.47;100959.16;4998563;28;20040;-57
2023/07/03 07:08:53;;;;;;;16.95;4.75;;;;;;;16.01;79.10;100973.16;4979128;28;20038;-57
2023/07/03 07:11:24;;;;;;;19.08;4.85;;;;;;;16.10;78.21;100981.06;4998954;28;20056;-57
2023/07/03 07:13:51;;;;;;;16.98;5.00;;;;;;;16.02;79.35;100976.66;4999386;28;20041;-58
2023/07/03 07:16:26;;;;;;;15.20;4.55;;;;;;;16.11;78.15;100971.44;4998543;28;20064;-57
2023/07/03 07:18:54;;;;;;;14.93;5.10;;;;;;;16.06;79.45;100966.19;4999595;28;20034;-57
2023/07/03 07:21:19;;;;;;;16.48;4.75;;;;;;;16.20;76.62;100976.72;4999352;28;20105;-58
2023/07/03 07:23:56;;;;;;;15.18;4.85;;;;;;;16.15;76.86;100981.97;4999200;28;20124;-57
2023/07/03 07:26:24;;;;;;;15.48;4.78;;;;;;;16.17;75.99;100984.59;4997382;28;20335;-58
2023/07/03 07:28:49;;;;;;;15.55;5.20;;;;;;;16.17;76.64;100979.34;4999159;28;20030;-57
2023/07/03 07:31:23;;;;;;;16.08;5.35;;;;;;;16.28;76.21;100977.63;4998838;28;20023;-57
2023/07/03 07:33:48;;;;;;;20.48;5.82;;;;;;;16.40;74.51;100983.78;4997091;28;20065;-57
2023/07/03 07:36:15;;;;;;;18.48;5.22;;;;;;;16.38;75.34;100977.63;4997385;28;20049;-57
2023/07/03 07:38:40;;;;;;;12.45;4.95;;;;;;;16.49;74.65;100974.13;4999643;28;20037;-58
2023/07/03 07:41:06;;;;;;;18.85;5.05;;;;;;;16.57;73.53;100989.03;4997235;28;20030;-58
2023/07/03 07:43:31;;;;;;;13.38;4.65;;;;;;;16.63;72.60;100984.69;4999104;28;20026;-57
2023/07/03 07:45:57;;;;;;;14.80;4.93;;;;;;;16.83;72.35;100995.22;4999068;28;20034;-57
2023/07/03 07:48:22;;;;;;;16.00;5.10;;;;;;;16.97;72.64;100986.47;4998728;28;20048;-57
2023/07/03 07:50:47;;;;;;;17.83;5.20;;;;;;;17.04;73.03;100980.31;4998090;28;20038;-58
2023/07/03 07:53:13;;;;;;;16.45;5.07;;;;;;;17.17;72.61;100984.69;4997597;28;20045;-57
2023/07/03 07:55:39;;;;;;;12.85;4.32;;;;;;;17.34;68.96;100989.06;4998354;28;20030;-57
2023/07/03 07:58:04;;;;;;;12.43;4.20;;;;;;;17.20;69.85;100991.72;4998073;28;20029;-58
2023/07/03 08:00:29;;;;;;;16.27;4.78;;;;;;;17.20;70.82;100992.59;4998190;28;20064;-57
2023/07/03 08:02:55;;;;;;;14.82;4.72;;;;;;;17.34;69.58;100989.94;4997616;28;20523;-57
2023/07/03 08:05:20;;;;;;;17.70;5.05;;;;;;;17.38;69.91;100998.72;4998217;28;20393;-58
2023/07/03 08:07:46;;;;;;;11.48;4.68;;;;;;;17.40;69.53;100989.03;4998130;28;20072;-57
2023/07/03 08:10:12;;;;;;;14.30;5.55;;;;;;;17.39;67.95;100997.81;4997745;28;20033;-58
2023/07/03 08:12:37;;;;;;;11.93;4.55;;;;;;;17.40;68.55;100999.59;4997914;28;20057;-58
2023/07/03 08:15:04;;;;;;;17.58;4.28;;;;;;;17.48;68.23;100992.56;4998299;28;20485;-58
2023/07/03 08:17:30;;;;;;;11.63;3.45;;;;;;;17.41;66.21;101005.72;4998825;28;20033;-58
2023/07/03 08:19:56;;;;;;;13.70;3.53;;;;;;;17.35;64.79;101002.22;4999016;28;20034;-57
2023/07/03 08:22:22;;;;;;;10.10;3.60;;;;;;;17.23;66.04;101009.28;4998717;28;20033;-57
2023/07/03 08:24:47;;;;;;;11.80;4.38;;;;;;;17.21;66.49;101007.50;4998226;28;20026;-57
2023/07/03 08:27:12;;;;;;;11.75;3.72;;;;;;;17.19;65.55;101011.03;4997946;28;20117;-57
2023/07/03 08:29:38;;;;;;;12.85;3.78;;;;;;;17.04;68.76;101011.91;4998086;28;20109;-58
2023/07/03 08:32:03;;;;;;;12.55;3.78;;;;;;;17.06;68.87;101012.81;4997395;28;20084;-58
2023/07/03 08:34:28;;;;;;;12.07;4.40;;;;;;;17.13;67.75;101016.28;4997410;28;20393;-57
2023/07/03 08:36:54;;;;;;;13.93;3.75;;;;;;;17.16;66.97;101011.03;4997771;28;20080;-57
2023/07/03 08:39:20;;;;;;;14.02;4.47;;;;;;;17.10;66.58;101017.16;4996542;28;20032;-58
2023/07/03 08:42:15;;;;;;;11.93;3.92;;;;;;;17.14;66.58;101029.47;4998219;28;20064;-58
2023/07/03 08:44:41;;;;;;;9.82;4.38;;;;;;;17.15;65.59;101030.34;4999154;28;20048;-57
2023/07/03 08:47:12;;;;;;;14.77;4.30;;;;;;;17.11;66.96;101025.97;5001471;28;20042;-57
2023/07/03 08:49:38;;;;;;;14.32;4.22;;;;;;;17.20;66.56;101032.09;5001971;28;20532;-57
2023/07/03 08:52:04;;;;;;;19.98;4.60;;;;;;;17.26;66.16;101025.06;4999103;28;20049;-57
2023/07/03 08:54:34;;;;;;;11.27;3.90;;;;;;;17.30;65.98;101024.19;5001554;28;20276;-57
2023/07/03 08:57:02;;;;;;;13.13;4.68;;;;;;;17.31;66.58;101028.59;5001509;28;20125;-63
2023/07/03 08:59:27;;;;;;;13.57;3.50;;;;;;;17.40;64.50;101017.16;5001762;28;20026;-63
2023/07/03 09:02:37;;;;;;;17.70;4.60;;;;;;;17.36;66.21;101025.03;5000944;28;20420;-63
2023/07/03 09:05:05;;;;;;;11.32;4.78;;;;;;;17.40;64.32;101018.03;4894993;29;20638;-63
2023/07/03 09:07:50;;;;;;;14.25;5.25;;;;;;;17.31;64.50;101031.22;5019212;23;20065;-63
2023/07/03 09:10:22;;;;;;;12.57;4.45;;;;;;;17.26;64.01;101030.34;5030521;23;20094;-94
2023/07/03 09:13:00;;;;;;;14.75;5.43;;;;;;;17.13;64.20;101022.47;4990289;28;20033;-93
2023/07/03 09:15:41;;;;;;;12.95;4.88;;;;;;;17.02;64.02;101021.59;4983664;28;20026;-92
2023/07/03 09:18:31;;;;;;;13.35;4.88;;;;;;;17.08;66.35;101028.59;5005094;28;20499;-92
2023/07/03 09:21:00;;;;;;;15.48;5.35;;;;;;;17.24;66.39;101018.94;5006496;28;20081;-93
2023/07/03 09:23:39;;;;;;;14.75;5.40;;;;;;;17.43;66.37;101020.66;5005980;23;20886;-57
2023/07/03 09:26:16;;;;;;;11.82;4.88;;;;;;;17.58;65.14;101013.59;4978681;28;20042;-57
2023/07/03 09:28:42;;;;;;;15.82;5.75;;;;;;;17.63;63.81;101017.09;4978638;28;20026;-57
2023/07/03 09:31:08;;;;;;;13.23;5.28;;;;;;;17.70;64.92;101008.31;4997504;28;20076;-57
2023/07/03 09:33:33;;;;;;;12.10;4.70;;;;;;;17.81;61.81;101018.78;4998168;28;20026;-57
2023/07/03 09:36:04;;;;;;;13.95;5.10;;;;;;;17.63;61.55;101017.97;4998054;28;20387;-57
2023/07/03 09:38:31;;;;;;;13.88;5.50;;;;;;;17.54;61.64;101024.16;4997926;28;20033;-63
2023/07/03 09:41:03;;;;;;;11.65;5.85;;;;;;;17.48;63.31;101026.81;4997954;28;20613;-63
2023/07/03 09:43:30;;;;;;;13.25;5.70;;;;;;;17.52;63.18;101025.91;4998199;28;20053;-63
2023/07/03 09:46:12;;;;;;;11.60;5.22;;;;;;;17.80;62.96;101024.94;4997070;28;20146;-63
2023/07/03 09:48:37;;;;;;;15.38;5.35;;;;;;;17.89;63.50;101031.06;4997933;28;20096;-63
2023/07/03 09:51:21;;;;;;;11.55;5.65;;;;;;;18.06;64.36;101027.50;4997070;28;20489;-63
2023/07/03 09:53:46;;;;;;;13.82;5.10;;;;;;;18.22;63.01;101029.19;4997650;28;20038;-63
2023/07/03 09:56:15;;;;;;;14.98;5.82;;;;;;;18.33;62.26;101026.50;4997403;28;20176;-64
2023/07/03 09:58:47;;;;;;;13.60;5.65;;;;;;;18.37;62.58;101027.38;4997643;28;20480;-63
2023/07/03 10:01:21;;;;;;;15.38;5.53;;;;;;;18.50;59.63;101029.03;4997399;28;20108;-63
2023/07/03 10:03:47;;;;;;;13.20;6.03;;;;;;;18.52;60.29;101029.88;4981717;28;20170;-63
2023/07/03 10:06:18;;;;;;;11.70;5.93;;;;;;;18.83;58.57;101036.72;4997368;28;20507;-64
2023/07/03 10:08:50;;;;;;;14.20;5.78;;;;;;;19.08;56.12;101024.25;4989692;28;20589;-63
2023/07/03 10:11:29;;;;;;;12.57;6.53;;;;;;;19.12;57.00;101020.69;4996779;28;20632;-64
2023/07/03 10:13:55;;;;;;;12.88;6.03;;;;;;;19.10;55.32;101019.81;4996993;28;20046;-64
2023/07/03 10:16:23;;;;;;;14.27;6.95;;;;;;;19.10;54.59;101027.72;4981213;28;20164;-64
2023/07/03 10:18:52;;;;;;;13.77;6.07;;;;;;;18.96;55.89;101030.50;4996998;28;20132;-64
2023/07/03 10:21:20;;;;;;;12.15;6.05;;;;;;;18.96;56.01;101032.25;4981067;28;20046;-64
2023/07/03 10:23:47;;;;;;;10.52;5.57;;;;;;;19.01;56.67;101041.91;4973585;28;20174;-64
2023/07/03 10:26:34;;;;;;;12.60;6.43;;;;;;;19.03;55.51;101045.41;4971936;28;20541;-64
2023/07/03 10:29:05;;;;;;;11.02;4.20;;;;;;;18.89;53.78;101047.28;4983251;28;20025;-64
2023/07/03 10:31:47;;;;;;;11.68;5.00;;;;;;;18.66;55.01;101045.66;4979532;28;20038;-63
2023/07/03 10:34:19;;;;;;;11.27;4.85;;;;;;;18.48;55.20;101046.66;4971340;28;20122;-64
2023/07/03 10:36:49;;;;;;;13.75;4.88;;;;;;;18.44;54.86;101044.91;4971714;28;20022;-65
2023/07/03 10:39:44;;;;;;;11.23;4.63;;;;;;;18.37;56.26;101037.91;4976798;28;20030;-65
2023/07/03 10:42:38;;;;;;;11.75;5.40;;;;;;;18.53;55.29;101044.84;5044642;22;20511;-96
2023/07/03 10:45:39;;;;;;;11.50;5.10;;;;;;;18.72;54.11;101044.72;4991736;28;20030;-96
2023/07/03 10:48:30;;;;;;;10.00;3.67;;;;;;;18.69;53.71;101034.19;4991961;28;20488;-96
2023/07/03 10:51:26;;;;;;;11.15;5.18;;;;;;;18.56;54.89;101039.53;4990946;28;20034;-96
2023/07/03 10:54:00;;;;;;;10.55;4.57;;;;;;;18.49;55.25;101048.38;4997346;28;20032;-95
2023/07/03 10:56:37;;;;;;;14.02;4.35;;;;;;;18.63;55.45;101056.22;5008476;22;20018;-64
2023/07/03 10:59:20;;;;;;;10.70;3.65;;;;;;;18.83;53.96;101050.81;4977185;28;20076;-65
2023/07/03 11:02:22;;;;;;;9.30;3.70;;;;;;;19.07;53.10;101055.06;4978678;28;20049;-65
2023/07/03 11:04:59;;;;;;;9.45;3.63;;;;;;;19.24;51.92;101049.63;4979454;28;20044;-65
2023/07/03 11:08:09;;;;;;;6.88;3.03;;;;;;;19.40;49.19;101049.50;4978045;28;20034;-65
2023/07/03 11:10:59;;;;;;;8.77;4.32;;;;;;;19.54;50.83;101038.78;4973297;28;20414;-65
2023/07/03 11:13:51;;;;;;;12.68;4.88;;;;;;;19.95;51.18;101040.13;4977261;28;20038;-65
2023/07/03 11:16:18;;;;;;;10.05;4.30;;;;;;;20.22;50.36;101041.53;4979070;28;20127;-65
2023/07/03 11:19:13;;;;;;;10.77;4.63;;;;;;;20.40;48.91;101031.59;4977622;28;20045;-65
2023/07/03 11:21:59;;;;;;;8.13;4.40;;;;;;;20.35;47.43;101050.19;4976872;28;20057;-65
2023/07/03 11:24:43;;;;;;;8.85;4.30;;;;;;;20.11;47.72;101044.31;4978612;28;20042;-65